Impacts TAF Board INFO
FOR SITUATIONAL AWARENESS. NOT TO BE USED FOR FLIGHT PLANNING PURPOSES.
IDs:

KMIA - Miami Intl, FL, US

Issued at 0651 UTC 13 Dec 2017
Updated at 0705 UTC 13 Dec 2017
Potential Impact None Slight Moderate High
Time0653Z 13/08Z 13/09Z 13/10Z 13/11Z 13/12Z 13/13Z 13/14Z 13/15Z 13/16Z 13/17Z 13/18Z 13/19Z 13/20Z>>
Type OBS PRVL PRVL PRVL PRVL PRVL PRVL PRVL PRVL PRVL PRVL PRVL PRVL PRVL
VIS 10 >6 >6 >6 >6 >6 >6 >6 >6 >6 >6 >6 >6 >6
CIG -- -- -- -- -- -- -- -- -- -- -- -- -- --
Cover SCT FEW FEW FEW FEW FEW FEW FEW FEW FEW FEW FEW FEW FEW
FltCat VFR VFR VFR VFR VFR VFR VFR VFR VFR VFR VFR VFR VFR VFR
WX -- -- -- -- -- -- -- -- -- -- -- -- -- --
WDir 320 310 310 310 310 310 310 310 310 310 310 310 310 340
WSpd 6 10 10 10 10 10 10 10 10 10 10 10 10 6
WGst 15 -- -- -- -- -- -- -- -- -- -- -- -- --

Raw TAF
KMIA 130651Z 1307/1412 31010KT P6SM FEW035
  FM132000 34006KT P6SM FEW045
  FM140000 VRB03KT P6SM SKC


Raw METAR
KMIA 130653Z 32006G15KT 10SM FEW060 SCT150 17/12 A2999 RMK AO2 SLP156 T01720117
KMIA 130553Z 26003KT 10SM FEW035 FEW050 17/14 A2998 RMK AO2 SLP152 T01670144 10200 20161 58007
KMIA 130453Z 22003KT 10SM SCT035 SCT050 SCT060 17/14 A2999 RMK AO2 SLP155 T01670144 402330089

METAR Board
Radar Display
Forecast Discussion

FOR SITUATIONAL AWARENESS. NOT TO BE USED FOR FLIGHT PLANNING PURPOSES.